Time;durP1;ratioP1;P1;durP2;ratioP2;P2;SDS_P1;SDS_P2;PMS_P1;PMS_P2;Temp;Humidity;BMP_temperature;BMP_pressure;BME280_temperature;BME280_humidity;BME280_pressure;Samples;Min_cycle;Max_cycle;Signal;HPM_P1;HPM_P2
2023/09/03 00:01:34;;;;;;;18.92;4.22;;;;;;;23.88;56.25;101051.16;4990441;28;20033;-80
2023/09/03 00:04:00;;;;;;;6.65;3.95;;;;;;;23.85;56.34;101046.88;4990226;28;20038;-80
2023/09/03 00:06:26;;;;;;;9.10;3.88;;;;;;;23.90;55.99;101054.53;4989746;28;20497;-79
2023/09/03 00:08:51;;;;;;;4.70;3.45;;;;;;;23.91;55.68;101049.88;4989539;28;20042;-80
2023/09/03 00:11:16;;;;;;;9.05;4.18;;;;;;;23.87;56.54;101054.06;4989757;28;20026;-79
2023/09/03 00:13:45;;;;;;;9.32;3.90;;;;;;;23.83;57.07;101048.97;4989405;28;20035;-78
2023/09/03 00:16:10;;;;;;;5.95;3.60;;;;;;;23.85;56.44;101057.03;4989980;28;20028;-80
2023/09/03 00:18:39;;;;;;;10.27;3.05;;;;;;;23.72;56.48;101035.81;4989550;28;20117;-78
2023/09/03 00:21:05;;;;;;;5.90;3.53;;;;;;;23.82;56.61;101051.94;4990312;28;20554;-79
2023/09/03 00:23:31;;;;;;;5.00;3.40;;;;;;;23.82;57.06;101052.78;4993814;28;20027;-79
2023/09/03 00:25:58;;;;;;;13.40;5.50;;;;;;;23.78;57.76;101046.00;4994785;28;20029;-79
2023/09/03 00:28:23;;;;;;;18.40;5.50;;;;;;;23.81;57.72;101039.25;4993991;28;20046;-79
2023/09/03 00:31:05;;;;;;;14.80;4.30;;;;;;;23.85;57.55;101046.88;4993513;28;20101;-79
2023/09/03 00:33:31;;;;;;;14.27;4.35;;;;;;;23.79;58.06;101036.69;4976373;28;20045;-79
2023/09/03 00:36:01;;;;;;;13.43;4.93;;;;;;;23.82;57.74;101035.47;4993509;28;20208;-79
2023/09/03 00:38:27;;;;;;;37.25;5.32;;;;;;;23.84;57.04;101038.84;4993588;28;20395;-78
2023/09/03 00:40:52;;;;;;;11.73;4.43;;;;;;;23.83;57.79;101042.63;4958967;28;20049;-80
2023/09/03 00:43:18;;;;;;;22.27;6.07;;;;;;;23.84;58.17;101038.84;4993622;28;20558;-80
2023/09/03 00:45:45;;;;;;;7.07;4.43;;;;;;;23.71;57.49;101014.88;4993196;28;20018;-79
2023/09/03 00:48:13;;;;;;;11.45;4.25;;;;;;;23.85;57.59;101037.81;4993053;28;20037;-77
2023/09/03 00:50:41;;;;;;;9.65;4.55;;;;;;;23.83;58.28;101035.25;4993690;28;20022;-79
2023/09/03 00:53:08;;;;;;;8.35;3.72;;;;;;;23.85;58.33;101035.06;4993438;28;20034;-80
2023/09/03 00:55:34;;;;;;;11.82;4.57;;;;;;;23.82;58.14;101030.78;4993237;28;20437;-79
2023/09/03 00:58:00;;;;;;;6.47;3.30;;;;;;;23.80;58.12;101027.41;4992927;28;20046;-78
2023/09/03 01:00:26;;;;;;;12.90;4.13;;;;;;;23.79;58.76;101031.19;4993454;28;20164;-81
2023/09/03 01:02:55;;;;;;;9.35;4.50;;;;;;;23.78;58.31;101040.50;4993017;28;20034;-78
2023/09/03 01:05:21;;;;;;;18.27;5.90;;;;;;;23.77;58.21;101038.78;4993347;28;20113;-80
2023/09/03 01:07:48;;;;;;;11.48;5.57;;;;;;;23.77;58.99;101029.69;4992315;28;20030;-80
2023/09/03 01:10:14;;;;;;;6.40;3.90;;;;;;;23.54;58.60;100993.41;4993200;28;20406;-79
2023/09/03 01:13:10;;;;;;;12.60;3.97;;;;;;;23.75;58.12;101029.91;4992332;28;20045;-81
2023/09/03 01:15:42;;;;;;;12.70;5.20;;;;;;;23.68;58.61;101022.66;4941740;28;20030;-79
2023/09/03 01:18:16;;;;;;;7.43;4.88;;;;;;;23.72;59.06;101030.31;4992804;28;20406;-78
2023/09/03 01:21:16;;;;;;;21.08;6.07;;;;;;;23.70;59.44;101029.66;4992961;28;20038;-79
2023/09/03 01:23:56;;;;;;;12.10;5.45;;;;;;;23.55;59.14;101012.44;4951386;28;20055;-78
2023/09/03 01:26:43;;;;;;;16.77;5.38;;;;;;;23.65;59.30;101029.41;4954546;28;20031;-77
2023/09/03 01:29:10;;;;;;;13.73;4.80;;;;;;;23.58;59.52;101027.66;4956187;28;20043;-80
2023/09/03 01:31:37;;;;;;;5.70;4.05;;;;;;;23.52;58.54;101014.72;4935267;28;20146;-80
2023/09/03 01:34:03;;;;;;;7.00;4.00;;;;;;;23.63;58.10;101023.28;4950069;28;20031;-80
2023/09/03 01:36:33;;;;;;;6.50;4.18;;;;;;;23.61;58.16;101025.34;4950655;28;20046;-77
2023/09/03 01:39:03;;;;;;;17.88;5.28;;;;;;;23.60;58.36;101025.56;4951219;28;20463;-78
2023/09/03 01:41:32;;;;;;;13.98;4.35;;;;;;;23.58;58.44;101033.16;4950928;28;20116;-79
2023/09/03 01:43:58;;;;;;;15.05;5.70;;;;;;;23.42;59.00;101001.38;4951144;28;20031;-78
2023/09/03 01:46:31;;;;;;;16.73;3.90;;;;;;;23.57;58.63;101026.81;4950646;28;20039;-79
2023/09/03 01:49:23;;;;;;;9.45;4.30;;;;;;;23.58;58.63;101027.66;4951126;28;20154;-80
2023/09/03 01:52:04;;;;;;;13.75;4.32;;;;;;;23.57;57.89;101024.09;4951142;28;20035;-78
2023/09/03 01:54:39;;;;;;;8.93;4.82;;;;;;;23.57;57.84;101023.22;4950555;28;20185;-78
2023/09/03 01:57:19;;;;;;;5.30;3.83;;;;;;;23.40;57.00;101008.94;4950386;28;20446;-80
2023/09/03 02:00:09;;;;;;;6.72;3.83;;;;;;;23.51;56.98;101027.63;4954183;28;20664;-78
2023/09/03 02:02:36;;;;;;;13.02;2.92;;;;;;;23.52;56.59;101026.56;4973010;28;20031;-78
2023/09/03 02:05:02;;;;;;;5.97;3.58;;;;;;;23.48;56.71;101022.53;4972711;28;20046;-78
2023/09/03 02:07:28;;;;;;;7.15;3.85;;;;;;;23.51;56.64;101024.88;4986429;28;20513;-79
2023/09/03 02:09:53;;;;;;;7.43;3.78;;;;;;;23.46;56.64;101012.78;4992110;28;20030;-79
2023/09/03 02:12:23;;;;;;;6.93;3.53;;;;;;;23.33;56.46;100986.06;4992195;28;20053;-80
2023/09/03 02:14:55;;;;;;;4.55;3.22;;;;;;;23.46;56.50;101012.78;4992026;28;20089;-78
2023/09/03 02:17:20;;;;;;;9.63;3.85;;;;;;;23.43;56.53;101019.50;4991749;28;20026;-79
2023/09/03 02:19:50;;;;;;;9.30;3.83;;;;;;;23.39;56.96;101012.75;4992039;28;20100;-79
2023/09/03 02:22:15;;;;;;;7.85;3.30;;;;;;;23.43;56.66;101013.16;4991130;28;20019;-79
2023/09/03 02:24:41;;;;;;;8.27;3.97;;;;;;;23.43;56.52;101014.03;4991394;28;20034;-79
2023/09/03 02:27:06;;;;;;;11.32;4.25;;;;;;;23.30;56.71;100994.69;4991666;28;20034;-79
2023/09/03 02:29:32;;;;;;;5.50;3.42;;;;;;;23.39;55.98;101001.75;4992193;28;20414;-78
2023/09/03 02:31:57;;;;;;;7.70;3.85;;;;;;;23.45;56.12;101017.44;4992962;28;20038;-76
2023/09/03 02:34:23;;;;;;;6.43;3.15;;;;;;;23.45;55.98;101013.84;5016680;28;20030;-76
2023/09/03 02:36:48;;;;;;;4.80;3.03;;;;;;;23.49;56.26;101017.88;5016457;28;20026;-76
2023/09/03 02:39:14;;;;;;;10.40;3.33;;;;;;;23.50;55.93;101016.81;5013357;28;20640;-79
2023/09/03 02:41:40;;;;;;;5.05;3.80;;;;;;;23.46;55.98;101015.50;4991896;28;20032;-81
2023/09/03 02:44:07;;;;;;;6.65;3.17;;;;;;;23.45;55.81;101017.44;4991305;28;20034;-79
2023/09/03 02:46:32;;;;;;;8.65;4.35;;;;;;;23.45;55.99;101017.44;4990603;28;20076;-79
2023/09/03 02:48:58;;;;;;;6.78;3.33;;;;;;;23.41;56.25;101018.03;4991818;28;20057;-79
2023/09/03 02:51:24;;;;;;;6.35;3.08;;;;;;;23.43;56.33;101015.91;4991682;28;20136;-79
2023/09/03 02:53:51;;;;;;;7.57;3.08;;;;;;;23.45;55.73;101020.19;4991277;28;20060;-78
2023/09/03 02:56:17;;;;;;;8.02;3.00;;;;;;;23.42;55.64;101020.59;4990888;28;20100;-79
2023/09/03 02:58:46;;;;;;;10.10;4.10;;;;;;;23.39;56.01;101020.09;4990752;28;20066;-79
2023/09/03 03:01:14;;;;;;;8.73;3.50;;;;;;;23.39;55.81;101023.72;4990873;28;20038;-80
2023/09/03 03:03:43;;;;;;;6.85;3.13;;;;;;;23.42;55.48;101016.97;4990390;28;20104;-78
2023/09/03 03:06:09;;;;;;;7.70;3.67;;;;;;;23.39;55.67;101028.34;4990430;28;20049;-80
2023/09/03 03:08:34;;;;;;;8.75;4.05;;;;;;;23.41;55.78;101020.78;4990488;28;20482;-79
2023/09/03 03:11:14;;;;;;;4.15;3.35;;;;;;;23.36;55.88;101021.34;4991207;28;20518;-81
2023/09/03 03:13:41;;;;;;;11.55;4.82;;;;;;;23.36;56.07;101015.84;4995853;28;20037;-79
2023/09/03 03:16:11;;;;;;;25.90;6.05;;;;;;;23.23;57.68;101002.00;4991536;28;20034;-79
2023/09/03 03:18:39;;;;;;;10.90;6.00;;;;;;;23.29;58.18;101017.69;4990499;28;20042;-77
2023/09/03 03:21:09;;;;;;;8.07;4.72;;;;;;;23.31;57.79;101016.44;4990479;28;20061;-79
2023/09/03 03:23:36;;;;;;;8.35;4.60;;;;;;;23.33;57.75;101019.81;4990860;28;20077;-79
2023/09/03 03:26:03;;;;;;;5.03;3.63;;;;;;;23.29;57.63;101028.66;4990061;28;20026;-79
2023/09/03 03:28:31;;;;;;;15.50;6.10;;;;;;;23.34;58.29;101017.94;4990113;28;20045;-77
2023/09/03 03:30:58;;;;;;;24.65;8.18;;;;;;;23.33;59.09;101019.00;4990333;28;20105;-79
2023/09/03 03:33:25;;;;;;;28.88;7.05;;;;;;;23.33;59.39;101016.25;4990407;28;20138;-79
2023/09/03 03:35:50;;;;;;;23.67;7.03;;;;;;;23.30;59.48;101013.91;4990084;28;20102;-79
2023/09/03 03:38:16;;;;;;;11.30;5.60;;;;;;;23.18;57.82;100993.50;4990367;28;20074;-80
2023/09/03 03:40:41;;;;;;;20.55;8.80;;;;;;;23.25;59.20;101010.88;4990444;28;20092;-81
2023/09/03 03:43:06;;;;;;;38.03;9.60;;;;;;;23.10;59.62;100996.38;4990180;28;20418;-79
2023/09/03 03:45:35;;;;;;;26.15;7.95;;;;;;;23.19;59.40;101011.69;4989477;28;21244;-79
2023/09/03 03:48:01;;;;;;;22.77;7.85;;;;;;;23.22;59.01;101016.78;4990186;28;20408;-79
2023/09/03 03:50:29;;;;;;;24.50;7.75;;;;;;;23.19;59.36;101017.16;4989929;28;20092;-79
2023/09/03 03:52:54;;;;;;;48.30;12.75;;;;;;;23.20;59.73;101027.09;4990162;28;20073;-79
2023/09/03 03:55:21;;;;;;;19.67;8.95;;;;;;;23.22;59.07;101033.22;4989590;28;20038;-81
2023/09/03 03:57:46;;;;;;;28.83;9.43;;;;;;;23.18;58.92;101020.94;4989459;28;20109;-79
2023/09/03 04:00:13;;;;;;;20.65;8.85;;;;;;;23.17;59.12;101014.63;4989470;28;20059;-79
2023/09/03 04:02:38;;;;;;;18.35;8.38;;;;;;;23.14;59.50;101001.31;4990010;28;20033;-78
2023/09/03 04:05:04;;;;;;;15.68;6.72;;;;;;;23.14;59.07;101008.69;4989901;28;20022;-79
2023/09/03 04:07:29;;;;;;;32.08;10.48;;;;;;;23.32;59.86;101022.78;4989411;28;20037;-79
2023/09/03 04:09:55;;;;;;;18.98;8.98;;;;;;;23.18;60.06;101002.59;4989518;28;20117;-79
2023/09/03 04:12:20;;;;;;;20.63;9.32;;;;;;;23.27;60.45;101020.63;4989059;28;20097;-79
2023/09/03 04:14:46;;;;;;;21.20;9.38;;;;;;;23.16;60.06;101012.06;4989501;28;20042;-80
2023/09/03 04:17:11;;;;;;;16.13;8.20;;;;;;;23.22;60.65;101025.84;4989238;28;20506;-79
2023/09/03 04:19:38;;;;;;;20.73;7.50;;;;;;;23.18;60.14;101020.94;4989474;28;20113;-80
2023/09/03 04:22:04;;;;;;;26.77;10.73;;;;;;;23.20;60.10;101016.13;4989788;28;20018;-78
2023/09/03 04:24:29;;;;;;;14.65;8.27;;;;;;;23.18;60.64;101020.94;4989517;28;20034;-78
2023/09/03 04:26:54;;;;;;;23.58;10.52;;;;;;;23.20;60.75;101019.72;4989562;28;20037;-80
2023/09/03 04:29:20;;;;;;;18.63;9.70;;;;;;;23.24;60.00;101014.66;4989439;28;20027;-79
2023/09/03 04:31:45;;;;;;;14.00;7.47;;;;;;;23.25;60.02;101013.63;4990183;28;20117;-79
2023/09/03 04:34:12;;;;;;;14.35;5.15;;;;;;;23.28;59.01;101015.97;4989649;28;20026;-82
2023/09/03 04:36:38;;;;;;;23.80;6.15;;;;;;;23.27;58.15;101000.56;4989424;28;20038;-79
2023/09/03 04:39:03;;;;;;;18.27;7.50;;;;;;;23.33;58.42;101008.84;4989935;28;20030;-80
2023/09/03 04:41:29;;;;;;;25.30;8.25;;;;;;;23.33;58.15;101007.16;4989196;28;20038;-82
2023/09/03 04:44:09;;;;;;;33.47;11.48;;;;;;;23.39;59.01;101007.25;4987243;28;20043;-83
2023/09/03 04:46:34;;;;;;;25.67;6.95;;;;;;;23.41;58.46;101005.16;4989122;28;20421;-82
2023/09/03 04:49:00;;;;;;;14.25;5.38;;;;;;;23.49;56.43;101002.25;4989119;28;20109;-81
2023/09/03 04:51:25;;;;;;;26.13;5.40;;;;;;;23.56;55.83;100997.66;4989441;28;20475;-82
2023/09/03 04:53:51;;;;;;;48.50;12.63;;;;;;;23.65;55.71;100998.34;4989306;28;20033;-81
2023/09/03 04:56:17;;;;;;;19.05;5.78;;;;;;;23.62;54.92;100990.50;4987806;28;20042;-78
2023/09/03 04:58:42;;;;;;;15.25;4.35;;;;;;;23.69;54.64;100988.66;4991071;28;20798;-78
2023/09/03 05:01:18;;;;;;;18.05;5.43;;;;;;;23.74;54.66;100992.50;4993855;28;20050;-78
2023/09/03 05:03:44;;;;;;;14.00;4.20;;;;;;;23.84;54.45;100987.50;4990746;28;20022;-78
2023/09/03 05:06:16;;;;;;;13.70;4.00;;;;;;;23.83;53.90;100969.31;4989714;28;20041;-77
2023/09/03 05:08:42;;;;;;;9.95;3.88;;;;;;;24.03;53.28;100998.81;4990727;28;20022;-76
2023/09/03 05:11:12;;;;;;;19.80;4.55;;;;;;;24.09;53.71;100987.84;4993535;28;20045;-79
2023/09/03 05:13:41;;;;;;;9.65;3.88;;;;;;;24.17;52.95;100984.09;4992738;28;20034;-77
2023/09/03 05:16:07;;;;;;;13.68;4.25;;;;;;;24.10;52.76;100964.78;4993040;28;20547;-76
2023/09/03 05:18:33;;;;;;;15.75;4.78;;;;;;;24.24;52.75;100979.50;4992570;28;20038;-78
2023/09/03 05:21:05;;;;;;;6.88;3.35;;;;;;;24.38;52.68;100994.97;4993331;28;20105;-78
2023/09/03 05:23:30;;;;;;;13.27;3.67;;;;;;;24.49;51.79;100999.03;4975552;28;20038;-78
2023/09/03 05:25:56;;;;;;;7.70;3.53;;;;;;;24.55;51.92;100990.81;4992680;28;20092;-79
2023/09/03 05:28:21;;;;;;;8.68;3.85;;;;;;;24.48;51.70;100975.34;4993090;28;20034;-78
2023/09/03 05:30:49;;;;;;;6.05;4.22;;;;;;;24.67;51.76;101000.16;4992635;28;20034;-78
2023/09/03 05:33:15;;;;;;;10.30;4.15;;;;;;;24.71;51.42;100993.16;4992999;28;20067;-78
2023/09/03 05:35:41;;;;;;;15.15;3.40;;;;;;;24.79;51.11;100995.75;4989977;28;20031;-79
2023/09/03 05:38:07;;;;;;;4.75;3.40;;;;;;;24.84;51.18;100984.97;4992800;28;20473;-79
2023/09/03 05:40:32;;;;;;;10.40;3.42;;;;;;;24.89;50.77;100996.19;4992895;28;20569;-77
2023/09/03 05:42:58;;;;;;;12.93;4.18;;;;;;;24.97;50.41;100980.56;4992950;28;20408;-79
2023/09/03 05:45:23;;;;;;;13.75;3.13;;;;;;;25.05;50.33;100989.44;4992425;28;20026;-80
2023/09/03 05:47:49;;;;;;;10.70;3.40;;;;;;;25.13;49.91;100993.91;4992332;28;20061;-80
2023/09/03 05:50:15;;;;;;;20.52;4.05;;;;;;;25.17;49.92;100992.41;4993104;28;20026;-79
2023/09/03 05:52:41;;;;;;;6.80;3.80;;;;;;;25.26;49.95;100991.16;4991981;28;20121;-79
2023/09/03 05:55:07;;;;;;;16.20;3.67;;;;;;;25.25;49.48;100983.97;4958026;28;20073;-78
2023/09/03 05:57:32;;;;;;;11.77;5.38;;;;;;;25.29;49.49;100976.97;4992595;28;20112;-78
2023/09/03 05:59:57;;;;;;;6.65;3.53;;;;;;;25.48;49.32;100995.38;4992877;28;20050;-77
2023/09/03 06:02:23;;;;;;;9.70;4.25;;;;;;;25.59;48.94;100997.53;4992221;28;20039;-79
2023/09/03 06:04:52;;;;;;;8.27;3.30;;;;;;;25.73;47.92;101010.22;4993331;28;20089;-80
2023/09/03 06:07:17;;;;;;;6.10;4.10;;;;;;;25.81;47.66;101007.25;4993893;28;20033;-79
2023/09/03 06:09:44;;;;;;;14.13;4.55;;;;;;;25.54;47.78;100946.88;4993431;28;20030;-79
2023/09/03 06:12:10;;;;;;;17.27;3.95;;;;;;;25.83;46.92;100983.09;4992263;28;20086;-79
2023/09/03 06:14:35;;;;;;;9.38;3.95;;;;;;;26.05;46.67;101013.13;4991466;28;20466;-79
2023/09/03 06:17:03;;;;;;;12.18;4.90;;;;;;;26.12;46.15;101013.94;4992105;28;20031;-77
2023/09/03 06:19:29;;;;;;;7.05;3.65;;;;;;;26.16;46.18;101001.47;4991557;28;20026;-77
2023/09/03 06:21:54;;;;;;;9.57;4.97;;;;;;;26.25;46.35;101016.69;4991906;28;20040;-79
2023/09/03 06:24:20;;;;;;;16.17;4.88;;;;;;;26.32;46.43;101009.25;4991774;28;20058;-76
2023/09/03 06:26:45;;;;;;;18.23;4.60;;;;;;;26.43;46.21;101003.91;4991474;28;20486;-79
2023/09/03 06:29:11;;;;;;;10.25;4.88;;;;;;;26.50;45.34;101014.91;4992165;28;20510;-79
2023/09/03 06:31:37;;;;;;;15.93;4.50;;;;;;;26.56;45.26;101004.91;4991127;28;20026;-78
2023/09/03 06:34:02;;;;;;;11.88;3.95;;;;;;;26.70;45.08;101001.84;4991755;28;20030;-80
2023/09/03 06:36:28;;;;;;;16.27;4.53;;;;;;;26.81;44.66;101006.72;4991893;28;20049;-81
2023/09/03 06:38:53;;;;;;;19.20;3.97;;;;;;;26.79;44.71;100983.94;4991702;28;20030;-81
2023/09/03 06:41:18;;;;;;;11.77;4.50;;;;;;;27.05;44.25;101010.59;4989361;28;20038;-79
2023/09/03 06:43:44;;;;;;;11.93;5.32;;;;;;;27.13;43.26;101010.31;4992604;28;20440;-78
2023/09/03 06:46:09;;;;;;;8.82;4.40;;;;;;;27.19;43.26;101012.16;4977471;28;20131;-79
2023/09/03 06:48:35;;;;;;;11.95;4.57;;;;;;;27.29;42.93;101008.91;4991782;28;20031;-81
2023/09/03 06:51:00;;;;;;;22.67;5.07;;;;;;;27.37;42.98;101005.84;4991458;28;20117;-80
2023/09/03 06:53:26;;;;;;;24.63;5.03;;;;;;;27.45;43.11;101002.84;4992145;28;20575;-84
2023/09/03 06:55:52;;;;;;;17.08;4.28;;;;;;;27.54;42.97;101007.88;4992110;28;20455;-84
2023/09/03 06:58:17;;;;;;;9.57;3.83;;;;;;;27.42;42.32;100983.94;5000082;28;20034;-84
2023/09/03 07:00:43;;;;;;;19.02;4.72;;;;;;;27.48;42.68;100991.34;4976528;28;20403;-81
2023/09/03 07:03:09;;;;;;;9.57;4.35;;;;;;;27.48;42.09;100974.78;4991815;28;20133;-83
2023/09/03 07:05:34;;;;;;;7.53;3.60;;;;;;;27.65;41.69;100991.59;4992504;28;20141;-87
2023/09/03 07:08:00;;;;;;;10.82;4.22;;;;;;;27.68;41.55;101004.97;4995950;28;20038;-92
2023/09/03 07:10:25;;;;;;;7.95;4.72;;;;;;;27.75;41.30;100990.03;4992090;28;20034;-88
2023/09/03 07:12:50;;;;;;;25.67;6.47;;;;;;;27.87;41.17;100999.25;4991632;28;20037;-85
2023/09/03 07:15:16;;;;;;;13.45;3.53;;;;;;;27.91;39.60;100994.97;4991686;28;20022;-85
2023/09/03 07:17:41;;;;;;;6.97;3.92;;;;;;;27.85;40.15;100984.81;4975530;28;20038;-84
2023/09/03 07:20:07;;;;;;;14.95;4.25;;;;;;;27.97;40.17;100993.19;4993853;28;20026;-84
2023/09/03 07:22:33;;;;;;;17.30;4.00;;;;;;;28.10;39.75;100993.91;5014110;28;20046;-82
2023/09/03 07:24:59;;;;;;;8.88;3.85;;;;;;;28.22;40.20;100995.91;5014292;28;20046;-83
2023/09/03 07:27:24;;;;;;;10.85;3.72;;;;;;;28.26;39.72;100995.22;5008552;28;20067;-83
2023/09/03 07:29:53;;;;;;;8.85;4.68;;;;;;;28.38;39.87;101000.81;4986088;28;20054;-87
2023/09/03 07:32:22;;;;;;;13.27;4.75;;;;;;;28.34;38.80;100966.41;5000723;28;20104;-83
2023/09/03 07:34:52;;;;;;;9.68;4.25;;;;;;;28.57;37.79;100994.16;4994700;28;20510;-84
2023/09/03 07:37:18;;;;;;;15.90;5.65;;;;;;;28.66;37.68;100998.34;4991301;28;20065;-86
2023/09/03 07:39:45;;;;;;;7.72;2.60;;;;;;;28.68;36.17;100996.19;4991183;28;20076;-81
2023/09/03 07:42:10;;;;;;;7.82;2.40;;;;;;;28.69;36.36;100997.00;4990284;28;20499;-87
2023/09/03 07:44:36;;;;;;;6.60;3.15;;;;;;;28.73;36.15;100993.56;4991058;28;20114;-88
2023/09/03 07:47:01;;;;;;;6.65;3.60;;;;;;;28.86;35.91;100989.75;4989514;28;20395;-90
2023/09/03 07:49:28;;;;;;;5.45;3.25;;;;;;;28.92;36.25;100986.91;4991304;28;20438;-84
2023/09/03 07:51:54;;;;;;;7.00;3.20;;;;;;;28.91;35.43;100970.50;4991354;28;20114;-87
2023/09/03 07:54:19;;;;;;;6.07;3.38;;;;;;;29.02;35.61;100980.78;4990612;28;20561;-82
2023/09/03 07:56:45;;;;;;;27.52;4.20;;;;;;;29.15;35.76;100994.41;4972863;28;20057;-84
2023/09/03 07:59:10;;;;;;;16.60;4.07;;;;;;;29.29;35.79;100989.53;4990377;28;20492;-83
2023/09/03 08:01:36;;;;;;;14.00;3.65;;;;;;;29.26;34.95;100974.22;4989839;28;20396;-83
2023/09/03 08:04:01;;;;;;;13.10;3.33;;;;;;;29.37;34.51;100984.47;4990789;28;20042;-86
2023/09/03 08:06:27;;;;;;;8.23;2.95;;;;;;;29.39;34.24;100981.44;4991682;28;20030;-84
2023/09/03 08:08:53;;;;;;;13.63;2.80;;;;;;;29.37;34.65;100983.63;4991429;28;20030;-86
2023/09/03 08:11:20;;;;;;;6.68;2.88;;;;;;;29.46;34.55;100988.59;4992886;28;20074;-86
2023/09/03 08:13:45;;;;;;;12.93;3.03;;;;;;;29.53;33.71;100988.47;4991050;28;20034;-87
2023/09/03 08:16:10;;;;;;;6.75;2.75;;;;;;;29.54;34.28;100990.16;4992088;28;20030;-90
2023/09/03 08:18:36;;;;;;;13.73;2.67;;;;;;;29.60;33.58;100983.66;4991629;28;20475;-86
2023/09/03 08:21:01;;;;;;;7.95;2.60;;;;;;;29.58;33.51;100988.59;4990463;28;20172;-86
2023/09/03 08:23:28;;;;;;;9.25;5.50;;;;;;;29.64;33.50;100985.69;4991412;28;20517;-85
2023/09/03 08:25:53;;;;;;;8.23;2.75;;;;;;;29.61;33.32;100977.00;4992631;28;20041;-87
2023/09/03 08:28:18;;;;;;;14.13;4.10;;;;;;;29.73;33.20;100983.41;5003698;28;20026;-83
2023/09/03 08:30:44;;;;;;;9.75;4.10;;;;;;;29.87;33.17;100984.88;5000793;28;20529;-84
2023/09/03 08:33:09;;;;;;;4.45;3.00;;;;;;;29.97;32.61;100978.69;4993254;28;20043;-83
2023/09/03 08:35:36;;;;;;;13.93;3.03;;;;;;;30.02;33.02;100984.38;4990049;28;20031;-83
2023/09/03 08:38:01;;;;;;;8.65;3.00;;;;;;;30.15;32.80;100968.28;4973361;28;20089;-87
2023/09/03 08:40:27;;;;;;;18.90;3.65;;;;;;;30.27;32.56;100972.97;4973399;28;20034;-88
2023/09/03 08:42:53;;;;;;;12.07;3.38;;;;;;;30.32;31.94;100973.91;4977841;28;20116;-86
2023/09/03 08:45:19;;;;;;;7.93;3.15;;;;;;;30.40;31.95;100972.72;4982454;28;20034;-90
2023/09/03 08:47:45;;;;;;;5.50;2.90;;;;;;;30.57;32.09;100974.47;4994488;28;20100;-85
2023/09/03 08:50:13;;;;;;;20.88;3.95;;;;;;;30.66;31.90;100953.53;4993711;28;20035;-83
2023/09/03 08:52:43;;;;;;;10.13;4.50;;;;;;;30.90;31.93;100951.47;4993607;28;20498;-85
2023/09/03 08:55:13;;;;;;;8.98;3.00;;;;;;;31.03;33.11;100956.75;4993763;28;20030;-84
2023/09/03 08:57:39;;;;;;;8.00;3.03;;;;;;;31.21;34.00;100950.94;5005524;28;20431;-89
2023/09/03 09:00:25;;;;;;;13.35;3.88;;;;;;;31.32;32.29;100943.59;4999437;28;20137;-84
2023/09/03 09:02:52;;;;;;;17.40;3.45;;;;;;;31.35;32.47;100931.13;4956612;28;20587;-82
2023/09/03 09:05:18;;;;;;;7.50;2.97;;;;;;;31.52;32.67;100945.91;4972287;28;20443;-92
2023/09/03 09:07:46;;;;;;;19.95;4.05;;;;;;;31.70;33.70;100945.63;4972578;28;20035;-86
2023/09/03 09:10:16;;;;;;;10.38;4.07;;;;;;;31.71;32.39;100948.13;4972548;28;20115;-92
2023/09/03 09:13:06;;;;;;;10.85;2.55;;;;;;;31.65;31.94;100948.34;4972204;28;20051;-86
2023/09/03 09:15:35;;;;;;;5.72;3.00;;;;;;;31.22;33.81;100899.00;4969603;28;20062;-89
2023/09/03 09:18:00;;;;;;;11.15;2.92;;;;;;;31.42;35.01;100943.78;4971481;28;20499;-90
2023/09/03 09:20:25;;;;;;;8.75;3.25;;;;;;;31.50;35.62;100948.06;4972892;28;20065;-90
2023/09/03 09:22:51;;;;;;;4.35;3.00;;;;;;;31.57;36.95;100935.69;4974994;28;20109;-85
2023/09/03 09:25:23;;;;;;;12.65;3.80;;;;;;;31.43;37.65;100923.22;4971170;28;20113;-88
2023/09/03 09:27:51;;;;;;;8.82;3.78;;;;;;;31.28;35.52;100937.69;4970284;28;20039;-86
2023/09/03 09:30:19;;;;;;;7.43;3.28;;;;;;;31.21;36.55;100937.06;4955732;28;20030;-83
2023/09/03 09:32:45;;;;;;;7.00;3.17;;;;;;;31.25;35.89;100927.09;4971995;28;20499;-86
2023/09/03 09:35:22;;;;;;;6.78;3.20;;;;;;;31.18;36.66;100922.81;4993276;28;20034;-84
2023/09/03 09:37:48;;;;;;;9.15;3.40;;;;;;;31.08;37.17;100906.81;4994680;28;20054;-86
2023/09/03 09:40:15;;;;;;;7.10;3.08;;;;;;;30.97;36.42;100912.47;4993072;28;20097;-84
2023/09/03 09:43:07;;;;;;;15.23;3.63;;;;;;;30.97;36.78;100935.53;4992016;28;20045;-81
2023/09/03 09:45:53;;;;;;;13.27;3.33;;;;;;;30.70;41.47;100937.22;4932174;29;20122;-88
2023/09/03 09:48:19;;;;;;;18.75;3.88;;;;;;;30.64;40.92;100941.81;4932530;29;20075;-87
2023/09/03 09:50:47;;;;;;;9.52;3.60;;;;;;;30.69;40.64;100935.53;4931757;29;20143;-81
2023/09/03 09:53:23;;;;;;;9.57;6.43;;;;;;;30.58;43.43;100937.25;4932523;29;20487;-86
2023/09/03 09:56:00;;;;;;;9.32;3.47;;;;;;;30.48;45.84;100952.91;4932573;29;20074;-84
2023/09/03 09:58:39;;;;;;;8.68;3.38;;;;;;;30.19;45.91;100944.50;4932007;29;20520;-82
2023/09/03 10:01:06;;;;;;;12.55;3.33;;;;;;;30.25;46.72;100948.22;4902597;29;20064;-83
2023/09/03 10:03:41;;;;;;;19.65;4.38;;;;;;;30.12;48.11;100952.13;4897539;29;20044;-86
2023/09/03 10:06:08;;;;;;;16.83;4.57;;;;;;;30.20;48.56;100943.44;4901029;29;20077;-89
2023/09/03 10:08:35;;;;;;;5.57;2.97;;;;;;;30.21;45.23;100931.22;4916253;29;20036;-88
2023/09/03 10:11:00;;;;;;;19.20;4.28;;;;;;;30.14;44.55;100915.81;4919931;29;20027;-83
2023/09/03 10:13:26;;;;;;;9.18;3.85;;;;;;;30.32;48.25;100926.72;4927996;29;20032;-83
2023/09/03 10:15:53;;;;;;;18.60;4.20;;;;;;;30.55;49.71;100926.66;4916969;29;20044;-87
2023/09/03 10:18:19;;;;;;;9.00;4.47;;;;;;;30.35;48.72;100919.84;4913771;29;20054;-85
2023/09/03 10:20:46;;;;;;;9.35;4.30;;;;;;;30.13;50.45;100934.41;4915999;29;20567;-85
2023/09/03 10:23:16;;;;;;;7.40;3.75;;;;;;;30.07;52.09;100945.63;4949704;28;20122;-81
2023/09/03 10:25:42;;;;;;;13.90;4.20;;;;;;;29.86;53.07;100938.81;4971567;28;20056;-84
2023/09/03 10:28:10;;;;;;;25.55;5.30;;;;;;;29.86;52.96;100938.81;4973606;28;20043;-89
2023/09/03 10:30:40;;;;;;;26.98;7.20;;;;;;;29.67;53.25;100942.78;4974383;28;20031;-83
2023/09/03 10:33:09;;;;;;;15.15;4.57;;;;;;;29.51;54.43;100940.75;4973108;28;20553;-80
2023/09/03 10:35:35;;;;;;;18.75;4.88;;;;;;;29.48;55.26;100932.91;4974712;28;20030;-84
2023/09/03 10:38:01;;;;;;;5.90;3.95;;;;;;;29.45;55.50;100908.41;4969156;28;20093;-86
2023/09/03 10:40:32;;;;;;;11.98;4.65;;;;;;;29.84;54.53;100921.56;4972111;28;20062;-86
2023/09/03 10:43:18;;;;;;;12.38;4.57;;;;;;;30.11;53.26;100919.94;4973781;28;20034;-84
2023/09/03 10:46:06;;;;;;;9.90;4.00;;;;;;;29.98;51.58;100920.22;4973328;28;20122;-87
2023/09/03 10:48:34;;;;;;;5.45;3.42;;;;;;;30.00;52.06;100909.69;4974004;28;20073;-88
2023/09/03 10:51:00;;;;;;;7.30;3.95;;;;;;;29.85;53.28;100914.91;4972387;28;20019;-85
2023/09/03 10:53:40;;;;;;;11.98;4.20;;;;;;;29.99;51.44;100915.50;4967331;28;20030;-84
2023/09/03 10:56:17;;;;;;;12.85;4.20;;;;;;;30.20;50.39;100900.97;4974237;28;20034;-82
2023/09/03 10:58:56;;;;;;;5.53;3.22;;;;;;;30.11;50.06;100903.28;4973082;28;20431;-84
2023/09/03 11:01:30;;;;;;;8.00;3.60;;;;;;;30.19;48.66;100883.47;4961085;28;20518;-85
2023/09/03 11:03:57;;;;;;;13.02;4.40;;;;;;;30.27;48.60;100875.84;4972860;28;20034;-85
2023/09/03 11:06:25;;;;;;;16.02;3.90;;;;;;;30.37;47.86;100884.34;4967139;28;20479;-84
2023/09/03 11:08:59;;;;;;;7.18;3.92;;;;;;;30.20;49.43;100896.25;4972065;28;20034;-87
2023/09/03 11:11:33;;;;;;;5.15;3.50;;;;;;;30.19;48.72;100900.13;4973824;28;20431;-85
2023/09/03 11:14:00;;;;;;;12.55;3.70;;;;;;;30.09;46.70;100869.38;4940308;28;20507;-86
2023/09/03 11:16:40;;;;;;;11.68;4.10;;;;;;;30.31;47.16;100885.34;4973845;28;20042;-85
2023/09/03 11:19:08;;;;;;;12.13;4.13;;;;;;;30.22;47.00;100888.53;4963618;28;20550;-81
2023/09/03 11:21:36;;;;;;;8.80;3.65;;;;;;;30.30;47.14;100889.22;4968410;28;20035;-83
2023/09/03 11:24:04;;;;;;;5.60;3.85;;;;;;;30.26;45.79;100855.56;4974400;28;20027;-84
2023/09/03 11:26:31;;;;;;;6.18;3.33;;;;;;;30.42;43.20;100884.50;4972467;28;20533;-84